Time;durP1;ratioP1;P1;durP2;ratioP2;P2;SDS_P1;SDS_P2;PMS_P1;PMS_P2;Temp;Humidity;BMP_temperature;BMP_pressure;BME280_temperature;BME280_humidity;BME280_pressure;Samples;Min_cycle;Max_cycle;Signal;HPM_P1;HPM_P2
2024/04/04 00:01:56;;;;;;;0.30;0.30;;;;;;;15.83;53.87;99549.47;4462256;32;33608;-82
2024/04/04 00:04:23;;;;;;;0.00;0.00;;;;;;;15.90;53.92;99545.41;4455615;32;34488;-82
2024/04/04 00:06:49;;;;;;;0.15;0.10;;;;;;;15.92;53.74;99542.66;4455654;32;33296;-82
2024/04/04 00:09:16;;;;;;;0.00;0.00;;;;;;;15.80;53.61;99547.00;4468682;32;33796;-82
2024/04/04 00:11:43;;;;;;;0.10;0.10;;;;;;;15.82;53.14;99542.44;4468249;32;34851;-81
2024/04/04 00:14:09;;;;;;;0.00;0.00;;;;;;;15.84;52.89;99535.19;4442154;32;33609;-81
2024/04/04 00:16:36;;;;;;;0.00;0.00;;;;;;;15.64;53.57;99533.91;4457203;32;31976;-81
2024/04/04 00:19:04;;;;;;;0.00;0.00;;;;;;;15.70;53.68;99535.28;4444537;32;32747;-81
2024/04/04 00:21:30;;;;;;;0.90;0.52;;;;;;;15.61;53.82;99534.94;4457656;32;32630;-82
2024/04/04 00:23:57;;;;;;;0.17;0.17;;;;;;;15.55;53.83;99538.03;4456563;32;32576;-82
2024/04/04 00:26:25;;;;;;;0.00;0.00;;;;;;;15.53;53.79;99547.94;4456797;32;32925;-82
2024/04/04 00:28:51;;;;;;;0.10;0.10;;;;;;;15.49;54.03;99545.59;4461003;32;34415;-81
2024/04/04 00:31:18;;;;;;;0.00;0.00;;;;;;;15.52;53.97;99542.69;4457502;32;33252;-82
2024/04/04 00:33:45;;;;;;;1.30;0.37;;;;;;;15.58;53.46;99543.16;4457441;32;34053;-81
2024/04/04 00:36:13;;;;;;;0.20;0.20;;;;;;;15.37;54.71;99541.94;4458409;32;32385;-81
2024/04/04 00:38:39;;;;;;;0.15;0.05;;;;;;;15.40;54.91;99536.41;4457628;32;33821;-81
2024/04/04 00:41:06;;;;;;;0.00;0.00;;;;;;;15.44;54.63;99543.22;4456761;32;34471;-82
2024/04/04 00:43:34;;;;;;;0.13;0.13;;;;;;;15.45;54.59;99547.59;4457761;32;33692;-81
2024/04/04 00:46:03;;;;;;;0.00;0.00;;;;;;;15.38;54.82;99543.63;4457147;32;33898;-82
2024/04/04 00:48:29;;;;;;;0.35;0.35;;;;;;;15.38;54.87;99546.28;4457417;32;34659;-82
2024/04/04 00:50:56;;;;;;;0.10;0.10;;;;;;;15.27;55.15;99556.81;4456891;32;33797;-82
2024/04/04 00:53:24;;;;;;;0.00;0.00;;;;;;;15.37;54.90;99557.88;4470492;32;34419;-81
2024/04/04 00:55:51;;;;;;;0.00;0.00;;;;;;;15.41;54.88;99555.88;4457438;32;34602;-81
2024/04/04 00:58:18;;;;;;;0.00;0.00;;;;;;;15.33;55.25;99556.38;4444932;32;32996;-82
2024/04/04 01:00:45;;;;;;;0.10;0.10;;;;;;;15.53;54.41;99558.56;4470463;32;34000;-81
2024/04/04 01:03:11;;;;;;;0.00;0.00;;;;;;;15.49;54.59;99561.53;4454544;32;32719;-81
2024/04/04 01:05:38;;;;;;;0.20;0.20;;;;;;;15.44;55.17;99559.19;4455788;32;33529;-82
2024/04/04 01:08:05;;;;;;;0.00;0.00;;;;;;;15.37;55.06;99564.06;4457260;32;33520;-82
2024/04/04 01:10:32;;;;;;;0.10;0.10;;;;;;;15.22;55.90;99562.44;4447799;32;33059;-81
2024/04/04 01:12:59;;;;;;;0.08;0.08;;;;;;;15.24;55.73;99552.56;4457468;32;32266;-82
2024/04/04 01:15:25;;;;;;;0.03;0.03;;;;;;;15.27;55.82;99540.84;4457224;32;32548;-81
2024/04/04 01:17:52;;;;;;;0.43;0.43;;;;;;;15.32;55.40;99544.91;4455153;32;33175;-82
2024/04/04 01:20:18;;;;;;;0.98;0.90;;;;;;;15.33;55.19;99546.63;4454211;32;33378;-81
2024/04/04 01:22:45;;;;;;;2.05;0.85;;;;;;;15.10;55.95;99550.81;4456939;32;32883;-82
2024/04/04 01:25:12;;;;;;;0.75;0.75;;;;;;;15.01;56.17;99546.09;4457642;32;34477;-82
2024/04/04 01:27:38;;;;;;;0.15;0.10;;;;;;;15.10;55.85;99561.44;4443302;32;33128;-83
2024/04/04 01:30:05;;;;;;;0.00;0.00;;;;;;;14.95;56.30;99557.13;4469088;32;33624;-82
2024/04/04 01:32:32;;;;;;;0.47;0.40;;;;;;;14.79;56.74;99567.06;4457008;32;34216;-83
2024/04/04 01:34:58;;;;;;;0.00;0.00;;;;;;;14.91;56.28;99560.06;4443782;32;32128;-83
2024/04/04 01:37:25;;;;;;;0.37;0.37;;;;;;;15.01;56.06;99561.22;4469730;32;32275;-83
2024/04/04 01:39:52;;;;;;;0.40;0.40;;;;;;;15.13;55.50;99570.16;4457104;32;34046;-82
2024/04/04 01:42:18;;;;;;;0.00;0.00;;;;;;;14.85;56.02;99558.69;4443704;32;33300;-82
2024/04/04 01:44:45;;;;;;;0.00;0.00;;;;;;;14.93;55.85;99558.19;4456732;32;33841;-82
2024/04/04 01:47:12;;;;;;;1.55;0.65;;;;;;;14.89;55.76;99560.19;4454855;32;33077;-82
2024/04/04 01:49:38;;;;;;;0.00;0.00;;;;;;;14.76;56.05;99561.94;4456595;32;33201;-82
2024/04/04 01:52:05;;;;;;;0.00;0.00;;;;;;;14.64;56.02;99549.44;4456608;32;34040;-82
2024/04/04 01:54:31;;;;;;;0.00;0.00;;;;;;;14.52;56.34;99557.25;4456764;32;32804;-82
2024/04/04 01:56:58;;;;;;;0.05;0.05;;;;;;;14.44;56.04;99564.84;4444244;32;32624;-82
2024/04/04 01:59:25;;;;;;;0.37;0.37;;;;;;;14.28;56.18;99580.84;4456803;32;35312;-82
2024/04/04 02:01:51;;;;;;;0.00;0.00;;;;;;;14.52;54.95;99585.62;4443826;32;32773;-82
2024/04/04 02:04:18;;;;;;;0.10;0.10;;;;;;;14.58;53.86;99596.72;4444136;32;34599;-82
2024/04/04 02:06:45;;;;;;;0.10;0.10;;;;;;;14.45;54.08;99595.75;4456639;32;33752;-82
2024/04/04 02:09:12;;;;;;;0.00;0.00;;;;;;;14.37;54.39;99605.16;4456823;32;32607;-82
2024/04/04 02:11:40;;;;;;;5.40;0.20;;;;;;;14.20;55.34;99611.53;4444020;32;32415;-82
2024/04/04 02:14:09;;;;;;;0.10;0.10;;;;;;;14.18;55.29;99624.03;4457224;32;31683;-81
2024/04/04 02:16:37;;;;;;;0.00;0.00;;;;;;;14.21;55.16;99606.09;4457175;32;34035;-81
2024/04/04 02:19:05;;;;;;;0.35;0.35;;;;;;;14.48;54.25;99603.56;4443865;32;34554;-83
2024/04/04 02:21:32;;;;;;;0.00;0.00;;;;;;;14.22;55.05;99620.22;4456896;32;34160;-83
2024/04/04 02:23:58;;;;;;;0.10;0.10;;;;;;;14.08;55.47;99624.59;4447545;32;33431;-83
2024/04/04 02:26:25;;;;;;;0.00;0.00;;;;;;;13.98;55.78;99622.59;4443092;32;34091;-83
2024/04/04 02:28:52;;;;;;;0.20;0.20;;;;;;;13.96;56.26;99628.00;4456512;32;33195;-83
2024/04/04 02:31:18;;;;;;;0.00;0.00;;;;;;;14.03;55.71;99631.97;4469686;32;34131;-83
2024/04/04 02:33:45;;;;;;;0.00;0.00;;;;;;;14.15;55.43;99633.03;4456761;32;34570;-83
2024/04/04 02:36:12;;;;;;;0.00;0.00;;;;;;;14.04;55.82;99638.13;4445878;32;33969;-83
2024/04/04 02:38:38;;;;;;;0.00;0.00;;;;;;;14.07;55.66;99633.50;4455521;32;33950;-83
2024/04/04 02:41:05;;;;;;;0.00;0.00;;;;;;;14.12;55.38;99635.87;4455889;32;35032;-83
2024/04/04 02:43:31;;;;;;;0.52;0.45;;;;;;;13.94;56.18;99632.53;4456625;32;32565;-83
2024/04/04 02:45:59;;;;;;;0.43;0.20;;;;;;;14.05;55.61;99635.41;4469734;32;34484;-83
2024/04/04 02:48:26;;;;;;;3.55;0.43;;;;;;;13.91;56.38;99632.72;4443396;32;34291;-83
2024/04/04 02:50:56;;;;;;;0.03;0.03;;;;;;;14.04;55.99;99633.69;4456619;32;34924;-81
2024/04/04 02:53:23;;;;;;;0.15;0.15;;;;;;;14.02;55.98;99640.88;4455624;32;34508;-82
2024/04/04 02:55:55;;;;;;;0.00;0.00;;;;;;;14.01;55.78;99639.19;4469708;32;33882;-82
2024/04/04 02:58:23;;;;;;;0.00;0.00;;;;;;;13.97;55.81;99635.00;4469426;32;33990;-82
2024/04/04 03:00:50;;;;;;;0.88;0.52;;;;;;;14.04;55.84;99632.81;4456362;32;32835;-81
2024/04/04 03:03:17;;;;;;;0.00;0.00;;;;;;;14.31;55.21;99638.25;4456270;32;32822;-81
2024/04/04 03:05:45;;;;;;;0.00;0.00;;;;;;;14.16;55.73;99641.88;4456399;32;33174;-81
2024/04/04 03:08:15;;;;;;;0.20;0.20;;;;;;;14.24;55.53;99647.53;4464056;32;34668;-81
2024/04/04 03:10:43;;;;;;;0.10;0.10;;;;;;;14.11;56.28;99643.94;4469038;32;32557;-81
2024/04/04 03:13:09;;;;;;;0.00;0.00;;;;;;;14.20;55.75;99646.03;4468835;32;32978;-81
2024/04/04 03:15:35;;;;;;;0.00;0.00;;;;;;;14.30;55.58;99644.53;4453808;32;33232;-81
2024/04/04 03:18:02;;;;;;;0.00;0.00;;;;;;;14.17;56.12;99644.41;4456006;32;34265;-81
2024/04/04 03:20:29;;;;;;;0.00;0.00;;;;;;;14.18;55.97;99646.12;4456757;32;32967;-82
2024/04/04 03:22:58;;;;;;;0.03;0.03;;;;;;;14.17;56.05;99643.56;4456059;32;32263;-82
2024/04/04 03:25:25;;;;;;;0.00;0.00;;;;;;;14.15;56.09;99642.78;4443292;32;33296;-81
2024/04/04 03:27:52;;;;;;;1.25;0.80;;;;;;;14.17;56.12;99644.41;4443631;32;33070;-82
2024/04/04 03:30:18;;;;;;;0.00;0.00;;;;;;;14.23;55.62;99645.84;4455107;32;33402;-83
2024/04/04 03:32:45;;;;;;;0.00;0.00;;;;;;;14.29;55.32;99645.44;4442739;32;35303;-82
2024/04/04 03:35:11;;;;;;;0.10;0.10;;;;;;;14.23;55.57;99648.50;4455537;32;33476;-83
2024/04/04 03:37:38;;;;;;;0.50;0.28;;;;;;;14.39;54.41;99651.94;4453076;32;32889;-83
2024/04/04 03:40:06;;;;;;;0.00;0.00;;;;;;;14.44;54.11;99644.53;4456302;32;35103;-83
2024/04/04 03:42:32;;;;;;;0.52;0.13;;;;;;;14.24;54.14;99650.19;4467768;32;33654;-83
2024/04/04 03:44:59;;;;;;;0.10;0.10;;;;;;;14.40;53.60;99655.44;4468000;32;33666;-83
2024/04/04 03:47:26;;;;;;;0.55;0.55;;;;;;;14.67;52.66;99653.75;4442587;32;34044;-82
2024/04/04 03:49:52;;;;;;;0.15;0.15;;;;;;;14.39;53.95;99657.25;4454422;32;32910;-82
2024/04/04 03:52:19;;;;;;;0.00;0.00;;;;;;;14.80;52.87;99659.13;4470732;32;33611;-82
2024/04/04 03:54:47;;;;;;;0.28;0.17;;;;;;;14.76;53.07;99652.28;4457744;32;32661;-82
2024/04/04 03:57:16;;;;;;;0.00;0.00;;;;;;;14.70;53.08;99658.00;4470808;32;31774;-82
2024/04/04 03:59:43;;;;;;;1.37;0.75;;;;;;;14.75;52.83;99655.91;4457602;32;33963;-82
2024/04/04 04:02:10;;;;;;;0.00;0.00;;;;;;;14.72;53.15;99658.78;4470792;32;34302;-82
2024/04/04 04:04:37;;;;;;;0.00;0.00;;;;;;;14.40;54.36;99677.53;4457732;32;35108;-82
2024/04/04 04:07:03;;;;;;;0.00;0.00;;;;;;;14.62;53.95;99670.91;4457895;32;33830;-82
2024/04/04 04:09:30;;;;;;;0.30;0.17;;;;;;;14.43;54.54;99677.38;4470582;32;32649;-82
2024/04/04 04:11:56;;;;;;;0.10;0.10;;;;;;;14.53;54.33;99680.34;4457867;32;33413;-83
2024/04/04 04:14:23;;;;;;;1.35;0.32;;;;;;;14.47;54.55;99684.16;4457696;32;33722;-83
2024/04/04 04:16:50;;;;;;;0.00;0.00;;;;;;;14.45;54.60;99688.72;4445065;32;32854;-83
2024/04/04 04:19:17;;;;;;;0.10;0.10;;;;;;;14.61;54.32;99691.31;4431709;32;34134;-83
2024/04/04 04:21:43;;;;;;;0.00;0.00;;;;;;;14.60;54.22;99689.63;4457641;32;34312;-83
2024/04/04 04:24:10;;;;;;;0.00;0.00;;;;;;;14.60;54.27;99686.97;4458463;32;32891;-83
2024/04/04 04:26:37;;;;;;;0.25;0.25;;;;;;;14.49;54.73;99692.94;4449710;32;34164;-83
2024/04/04 04:29:04;;;;;;;1.27;0.47;;;;;;;14.59;54.37;99695.87;4444588;32;33503;-82
2024/04/04 04:31:32;;;;;;;0.10;0.10;;;;;;;14.44;54.96;99700.31;4457618;32;33507;-83
2024/04/04 04:34:01;;;;;;;0.28;0.28;;;;;;;14.54;54.95;99695.31;4431440;32;35234;-83
2024/04/04 04:36:30;;;;;;;9.57;0.40;;;;;;;14.68;54.08;99699.78;4451595;32;33322;-81
2024/04/04 04:38:56;;;;;;;0.00;0.00;;;;;;;14.99;52.99;99696.03;4460023;32;32410;-81
2024/04/04 04:41:23;;;;;;;0.55;0.20;;;;;;;15.09;52.97;99692.69;4457904;32;32239;-82
2024/04/04 04:43:50;;;;;;;0.20;0.20;;;;;;;14.78;53.73;99704.44;4470541;32;33797;-82
2024/04/04 04:46:18;;;;;;;0.03;0.03;;;;;;;14.66;54.13;99699.00;4457719;32;33513;-84
2024/04/04 04:48:45;;;;;;;0.00;0.00;;;;;;;14.87;53.72;99702.16;4457881;32;34741;-83
2024/04/04 04:51:12;;;;;;;0.60;0.60;;;;;;;14.88;53.18;99709.16;4457020;32;33251;-84
2024/04/04 04:53:40;;;;;;;0.32;0.22;;;;;;;14.85;53.09;99704.88;4456969;32;33199;-83
2024/04/04 04:56:07;;;;;;;0.15;0.15;;;;;;;14.92;52.95;99708.88;4456502;32;34937;-83
2024/04/04 04:58:33;;;;;;;0.00;0.00;;;;;;;14.88;52.69;99715.34;4457510;32;34257;-83
2024/04/04 05:01:00;;;;;;;0.00;0.00;;;;;;;14.59;53.85;99711.84;4470216;32;33203;-83
2024/04/04 05:03:28;;;;;;;0.15;0.15;;;;;;;14.56;54.54;99722.62;4447737;32;33279;-82
2024/04/04 05:05:55;;;;;;;0.00;0.00;;;;;;;14.87;53.34;99718.94;4457787;32;33013;-82
2024/04/04 05:08:21;;;;;;;0.32;0.32;;;;;;;14.67;53.91;99721.97;4444460;32;33494;-82
2024/04/04 05:10:48;;;;;;;0.20;0.20;;;;;;;14.67;54.06;99720.19;4457269;32;31155;-83
2024/04/04 05:13:15;;;;;;;0.10;0.10;;;;;;;14.37;54.88;99730.84;4456052;32;32989;-82
2024/04/04 05:15:47;;;;;;;0.22;0.22;;;;;;;14.49;54.46;99729.28;4470394;32;33658;-82
2024/04/04 05:18:14;;;;;;;0.60;0.37;;;;;;;14.62;54.21;99732.03;4456962;32;33094;-81
2024/04/04 05:20:42;;;;;;;0.00;0.00;;;;;;;14.63;53.86;99731.09;4470273;32;33607;-82
2024/04/04 05:23:09;;;;;;;0.17;0.15;;;;;;;14.76;53.30;99726.72;4455682;32;33509;-81
2024/04/04 05:25:35;;;;;;;0.20;0.20;;;;;;;14.96;52.91;99717.53;4453434;32;32919;-81
2024/04/04 05:28:02;;;;;;;0.10;0.10;;;;;;;14.88;53.34;99728.63;4456996;32;33931;-82
2024/04/04 05:30:31;;;;;;;0.35;0.35;;;;;;;14.70;53.53;99732.41;4459030;32;32628;-82
2024/04/04 05:33:01;;;;;;;0.03;0.00;;;;;;;14.70;53.55;99724.44;4444401;32;32932;-82
2024/04/04 05:35:29;;;;;;;0.20;0.10;;;;;;;14.60;54.14;99735.63;4457314;32;32779;-82
2024/04/04 05:37:55;;;;;;;0.05;0.05;;;;;;;14.76;53.52;99729.38;4454155;32;33134;-82
2024/04/04 05:40:25;;;;;;;1.00;0.52;;;;;;;14.86;53.41;99727.88;4451144;32;31887;-82
2024/04/04 05:42:53;;;;;;;0.00;0.00;;;;;;;14.91;53.43;99731.09;4457833;32;32866;-82
2024/04/04 05:45:19;;;;;;;1.10;0.15;;;;;;;14.96;53.40;99723.69;4462561;31;34668;-82
2024/04/04 05:47:47;;;;;;;0.47;0.28;;;;;;;14.90;53.45;99718.75;4444931;32;33256;-81
2024/04/04 05:50:13;;;;;;;0.17;0.17;;;;;;;14.97;53.83;99727.19;4444003;32;32569;-82
2024/04/04 05:52:40;;;;;;;0.30;0.30;;;;;;;14.86;54.14;99735.84;4457340;32;32460;-82
2024/04/04 05:55:10;;;;;;;0.08;0.08;;;;;;;14.89;54.12;99740.97;4457557;32;33755;-82
2024/04/04 05:57:36;;;;;;;2.30;1.48;;;;;;;14.93;54.01;99741.63;4457317;31;34137;-82
2024/04/04 06:00:03;;;;;;;0.00;0.00;;;;;;;14.88;54.15;99752.56;4459220;32;32539;-82
2024/04/04 06:02:38;;;;;;;0.10;0.10;;;;;;;14.92;54.20;99745.25;4470858;31;33974;-82
2024/04/04 06:05:06;;;;;;;0.00;0.00;;;;;;;14.98;54.39;99745.69;4445972;31;34258;-82
2024/04/04 06:07:33;;;;;;;0.65;0.40;;;;;;;15.20;53.96;99739.03;4455919;32;33958;-82
2024/04/04 06:10:00;;;;;;;0.00;0.00;;;;;;;15.29;53.79;99741.13;4456646;32;32168;-82
2024/04/04 06:12:27;;;;;;;0.40;0.40;;;;;;;15.34;53.53;99734.53;4444603;32;33462;-82
2024/04/04 06:14:54;;;;;;;0.00;0.00;;;;;;;15.60;52.88;99746.16;4457056;32;32902;-82
2024/04/04 06:17:20;;;;;;;3.85;0.77;;;;;;;15.70;52.62;99748.25;4457360;32;33391;-82
2024/04/04 06:19:47;;;;;;;0.03;0.03;;;;;;;15.68;52.48;99752.81;4456990;32;34017;-82
2024/04/04 06:22:13;;;;;;;0.15;0.10;;;;;;;15.70;52.73;99761.56;4444803;32;32670;-82
2024/04/04 06:24:40;;;;;;;0.03;0.03;;;;;;;15.57;53.66;99756.13;4457598;32;33860;-82
2024/04/04 06:27:07;;;;;;;4.03;1.73;;;;;;;15.55;53.46;99756.25;4470342;32;33713;-82
2024/04/04 06:29:33;;;;;;;0.00;0.00;;;;;;;16.21;51.52;99743.91;4455018;32;34208;-82
2024/04/04 06:32:03;;;;;;;0.10;0.10;;;;;;;16.20;51.82;99752.88;4457191;32;33806;-82
2024/04/04 06:34:30;;;;;;;0.15;0.15;;;;;;;16.23;51.45;99755.31;4469659;31;34153;-81
2024/04/04 06:36:57;;;;;;;0.00;0.00;;;;;;;15.88;52.34;99765.66;4480512;31;32865;-82
2024/04/04 06:39:24;;;;;;;0.10;0.10;;;;;;;16.04;51.48;99766.34;4455292;32;34184;-82
2024/04/04 06:41:51;;;;;;;0.00;0.00;;;;;;;16.05;51.95;99767.22;4464637;32;32727;-82
2024/04/04 06:44:17;;;;;;;0.10;0.10;;;;;;;16.17;51.60;99765.53;4442651;32;34305;-82
2024/04/04 06:46:44;;;;;;;0.00;0.00;;;;;;;16.25;51.09;99758.75;4468341;32;32442;-82
2024/04/04 06:49:11;;;;;;;0.10;0.10;;;;;;;16.15;51.87;99765.66;4444053;32;34347;-82
2024/04/04 06:51:38;;;;;;;0.00;0.00;;;;;;;16.29;51.64;99775.38;4456508;32;32363;-82
2024/04/04 06:54:04;;;;;;;1.05;0.82;;;;;;;16.34;51.50;99774.09;4456536;32;34675;-82
2024/04/04 06:56:31;;;;;;;0.00;0.00;;;;;;;16.38;51.19;99782.75;4455732;32;34875;-82
2024/04/04 06:58:58;;;;;;;0.00;0.00;;;;;;;15.83;52.75;99778.44;4438634;32;33327;-82
2024/04/04 07:01:26;;;;;;;0.05;0.05;;;;;;;15.91;52.07;99784.12;4458388;32;32931;-82
2024/04/04 07:03:54;;;;;;;0.30;0.30;;;;;;;16.16;52.14;99796.66;4455996;32;34607;-82
2024/04/04 07:06:20;;;;;;;0.20;0.20;;;;;;;16.24;51.96;99798.81;4458705;32;32941;-82
2024/04/04 07:08:47;;;;;;;0.10;0.10;;;;;;;16.45;51.44;99808.00;4456799;32;34282;-86
2024/04/04 07:11:14;;;;;;;0.00;0.00;;;;;;;16.65;51.41;99807.50;4442829;32;32221;-82
2024/04/04 07:13:41;;;;;;;0.00;0.00;;;;;;;16.22;52.04;99816.69;4456493;32;32986;-82
2024/04/04 07:16:07;;;;;;;0.15;0.00;;;;;;;16.67;50.72;99818.06;4468308;32;33828;-82
2024/04/04 07:18:34;;;;;;;0.00;0.00;;;;;;;16.69;50.07;99817.97;4434562;32;32270;-82
2024/04/04 07:21:01;;;;;;;0.00;0.00;;;;;;;16.82;49.42;99821.53;4456315;32;33115;-82
2024/04/04 07:23:28;;;;;;;0.00;0.00;;;;;;;17.33;49.02;99809.00;4443424;32;32583;-82
2024/04/04 07:25:55;;;;;;;0.00;0.00;;;;;;;17.52;48.03;99802.31;4462184;32;33437;-82
2024/04/04 07:28:22;;;;;;;0.15;0.08;;;;;;;17.26;48.92;99804.22;4458339;32;33045;-82
2024/04/04 07:30:49;;;;;;;0.00;0.00;;;;;;;17.30;48.72;99795.03;4471102;32;33859;-82
2024/04/04 07:33:16;;;;;;;0.00;0.00;;;;;;;17.35;48.84;99798.22;4470344;32;33572;-83
2024/04/04 07:35:43;;;;;;;0.00;0.00;;;;;;;17.55;48.39;99799.44;4459561;32;32248;-82
2024/04/04 07:38:11;;;;;;;0.03;0.03;;;;;;;17.75;47.90;99806.03;4471028;32;33183;-82
2024/04/04 07:40:40;;;;;;;0.10;0.00;;;;;;;17.85;47.74;99818.63;4469711;32;33716;-82
2024/04/04 07:43:09;;;;;;;0.00;0.00;;;;;;;18.19;47.46;99809.91;4471401;32;34191;-82
2024/04/04 07:45:37;;;;;;;0.10;0.10;;;;;;;17.83;46.60;99809.84;4470916;32;34760;-83
2024/04/04 07:48:07;;;;;;;0.13;0.13;;;;;;;18.38;46.31;99816.41;4458223;32;33018;-82
2024/04/04 07:50:35;;;;;;;0.10;0.10;;;;;;;18.36;47.11;99818.34;4456015;32;33715;-82
2024/04/04 07:53:03;;;;;;;0.00;0.00;;;;;;;18.80;45.63;99821.28;4457195;32;34024;-82
2024/04/04 07:55:30;;;;;;;0.00;0.00;;;;;;;18.96;45.50;99821.81;4445178;32;35307;-82
2024/04/04 07:57:57;;;;;;;0.25;0.22;;;;;;;18.78;44.19;99824.09;4471283;32;34261;-83
2024/04/04 08:00:24;;;;;;;0.13;0.13;;;;;;;19.22;43.76;99821.56;4458069;32;32758;-83
2024/04/04 08:02:51;;;;;;;0.00;0.00;;;;;;;19.25;43.79;99822.19;4469707;32;34756;-83
2024/04/04 08:05:18;;;;;;;0.00;0.00;;;;;;;19.29;43.36;99828.16;4469380;32;32489;-83
2024/04/04 08:07:44;;;;;;;0.00;0.00;;;;;;;19.04;43.28;99824.75;4444062;32;32165;-82
2024/04/04 08:10:15;;;;;;;0.00;0.00;;;;;;;19.13;43.79;99826.69;4457759;32;33066;-83
2024/04/04 08:12:41;;;;;;;0.00;0.00;;;;;;;19.52;42.65;99834.37;4470167;32;33027;-82
2024/04/04 08:15:12;;;;;;;1.30;0.10;;;;;;;18.82;43.93;99840.75;4457959;32;34747;-83
2024/04/04 08:17:40;;;;;;;0.00;0.00;;;;;;;19.08;43.79;99831.53;4471419;32;33226;-83
2024/04/04 08:20:08;;;;;;;0.32;0.10;;;;;;;19.59;43.45;99835.56;4457742;32;32448;-83
2024/04/04 08:22:35;;;;;;;0.10;0.00;;;;;;;19.77;43.09;99827.91;4457563;32;33183;-83
2024/04/04 08:25:02;;;;;;;0.10;0.05;;;;;;;19.81;42.46;99829.34;4457617;32;34340;-83
2024/04/04 08:27:29;;;;;;;0.00;0.00;;;;;;;19.95;42.28;99831.75;4457424;32;31567;-83
2024/04/04 08:29:55;;;;;;;0.00;0.00;;;;;;;20.05;42.24;99834.53;4457602;32;33958;-83
2024/04/04 08:32:22;;;;;;;0.00;0.00;;;;;;;20.07;41.44;99832.56;4457709;32;33167;-83
2024/04/04 08:34:49;;;;;;;0.00;0.00;;;;;;;20.43;42.20;99825.97;4454447;32;33306;-83
2024/04/04 08:37:15;;;;;;;0.00;0.00;;;;;;;20.28;41.68;99832.63;4469622;32;33373;-83
2024/04/04 08:39:42;;;;;;;0.00;0.00;;;;;;;20.05;42.04;99839.88;4444388;32;32917;-83
2024/04/04 08:42:09;;;;;;;0.50;0.50;;;;;;;19.71;42.83;99844.47;4457470;32;33558;-83
2024/04/04 08:44:35;;;;;;;0.00;0.00;;;;;;;19.81;42.73;99845.44;4457608;32;34503;-83
2024/04/04 08:47:05;;;;;;;0.00;0.00;;;;;;;19.39;43.08;99846.03;4448784;32;33146;-83
2024/04/04 08:49:33;;;;;;;0.22;0.20;;;;;;;19.73;42.12;99850.56;4457527;32;33156;-83
2024/04/04 08:51:59;;;;;;;0.08;0.08;;;;;;;19.21;42.30;99850.16;4444724;32;33047;-83
2024/04/04 08:54:26;;;;;;;0.00;0.00;;;;;;;19.39;42.45;99855.91;4426615;32;32959;-83
2024/04/04 08:56:54;;;;;;;0.00;0.00;;;;;;;19.38;42.70;99852.38;4447863;32;33298;-83
2024/04/04 08:59:23;;;;;;;0.00;0.00;;;;;;;18.88;43.04;99856.31;4436183;32;34104;-83
2024/04/04 09:01:51;;;;;;;0.00;0.00;;;;;;;19.08;43.38;99858.28;4434874;32;33035;-82
2024/04/04 09:04:28;;;;;;;0.10;0.10;;;;;;;19.19;43.17;99860.16;4463211;32;33821;-83
2024/04/04 09:06:55;;;;;;;0.10;0.00;;;;;;;18.90;44.11;99865.94;4463882;32;33599;-83
2024/04/04 09:09:23;;;;;;;0.03;0.03;;;;;;;19.31;43.02;99848.47;4449811;32;33789;-83
2024/04/04 09:11:49;;;;;;;0.00;0.00;;;;;;;19.29;43.11;99852.25;4431296;32;33465;-83
2024/04/04 09:14:16;;;;;;;0.20;0.20;;;;;;;19.35;43.12;99859.78;4462926;32;33613;-82
2024/04/04 09:16:44;;;;;;;0.20;0.10;;;;;;;19.02;43.02;99858.78;4463723;32;34374;-83
2024/04/04 09:19:12;;;;;;;0.00;0.00;;;;;;;19.06;43.28;99857.59;4465138;32;33643;-83
2024/04/04 09:21:39;;;;;;;0.00;0.00;;;;;;;19.28;42.94;99848.72;4449943;32;33240;-83
2024/04/04 09:24:10;;;;;;;0.35;0.10;;;;;;;19.68;42.14;99849.09;4441773;32;32961;-83
2024/04/04 09:26:37;;;;;;;0.00;0.00;;;;;;;19.62;42.32;99846.91;4460328;32;33566;-83
2024/04/04 09:29:05;;;;;;;0.00;0.00;;;;;;;19.44;43.43;99843.84;4448123;32;33952;-83
2024/04/04 09:31:37;;;;;;;0.00;0.00;;;;;;;19.47;42.68;99842.75;4434135;32;34286;-83
2024/04/04 09:34:04;;;;;;;0.00;0.00;;;;;;;19.50;42.97;99837.12;4447524;32;34471;-83
2024/04/04 09:36:39;;;;;;;2.50;0.95;;;;;;;19.71;43.42;99841.81;4446912;32;33490;-83
2024/04/04 09:39:12;;;;;;;0.17;0.15;;;;;;;19.91;42.29;99835.66;4439043;32;33779;-82
2024/04/04 09:41:39;;;;;;;0.00;0.00;;;;;;;19.79;42.94;99832.13;4448050;32;34676;-83
2024/04/04 09:44:06;;;;;;;0.10;0.10;;;;;;;20.08;41.13;99837.81;4451027;32;34246;-83
2024/04/04 09:46:38;;;;;;;0.10;0.10;;;;;;;19.75;41.34;99827.16;4450149;32;32941;-83
2024/04/04 09:49:06;;;;;;;0.03;0.03;;;;;;;19.84;41.26;99832.63;4447272;32;32793;-83
2024/04/04 09:51:33;;;;;;;0.00;0.00;;;;;;;19.58;42.08;99841.91;4436739;32;34968;-82
2024/04/04 09:54:00;;;;;;;0.13;0.05;;;;;;;19.67;42.22;99835.84;4448707;32;34094;-83
2024/04/04 09:56:29;;;;;;;0.10;0.00;;;;;;;19.49;41.92;99839.94;4449382;32;33402;-83
2024/04/04 09:58:57;;;;;;;0.10;0.10;;;;;;;18.81;43.14;99849.75;4449318;32;34910;-83
2024/04/04 10:01:24;;;;;;;0.13;0.13;;;;;;;19.01;43.35;99843.72;4448247;32;33051;-83
2024/04/04 10:03:54;;;;;;;0.52;0.52;;;;;;;19.31;43.20;99842.25;4445092;32;35489;-82
2024/04/04 10:06:36;;;;;;;0.08;0.00;;;;;;;19.12;44.18;99843.72;4449496;32;32136;-83
2024/04/04 10:09:18;;;;;;;0.10;0.10;;;;;;;19.44;43.66;99841.16;4436708;32;34524;-82
2024/04/04 10:11:45;;;;;;;0.15;0.15;;;;;;;19.68;43.49;99837.53;4442138;32;33309;-83
2024/04/04 10:14:14;;;;;;;0.00;0.00;;;;;;;19.37;43.72;99841.75;4445990;32;34613;-83
2024/04/04 10:16:50;;;;;;;0.30;0.30;;;;;;;19.52;42.98;99845.94;4440016;32;32220;-83
2024/04/04 10:19:18;;;;;;;0.00;0.00;;;;;;;19.38;43.40;99848.84;4453387;32;32739;-83
2024/04/04 10:21:46;;;;;;;0.10;0.10;;;;;;;18.96;44.40;99850.41;4426032;32;33356;-82
2024/04/04 10:24:25;;;;;;;1.17;0.65;;;;;;;19.62;43.46;99840.72;4453751;32;34164;-83
2024/04/04 10:26:54;;;;;;;0.00;0.00;;;;;;;19.35;43.83;99846.41;4453619;32;35235;-83
2024/04/04 10:29:27;;;;;;;0.00;0.00;;;;;;;19.95;43.17;99845.16;4441269;32;33518;-83
2024/04/04 10:31:53;;;;;;;0.43;0.35;;;;;;;19.72;43.15;99843.50;4444347;32;35504;-83
2024/04/04 10:34:20;;;;;;;0.00;0.00;;;;;;;20.21;42.22;99843.84;4430826;32;33227;-83
2024/04/04 10:36:47;;;;;;;0.00;0.00;;;;;;;20.68;41.94;99843.53;4447557;32;33033;-83
2024/04/04 10:39:17;;;;;;;0.03;0.03;;;;;;;20.98;40.38;99845.44;4444689;32;34685;-83
2024/04/04 10:41:52;;;;;;;0.05;0.05;;;;;;;21.33;39.37;99831.66;4425717;32;33029;-83
2024/04/04 10:44:20;;;;;;;0.17;0.17;;;;;;;21.32;38.44;99846.09;4416450;32;34319;-83
2024/04/04 10:46:50;;;;;;;0.00;0.00;;;;;;;21.62;37.98;99839.81;4446878;32;34837;-83
2024/04/04 10:49:23;;;;;;;0.00;0.00;;;;;;;21.55;38.73;99837.81;4441225;32;32997;-83
2024/04/04 10:51:58;;;;;;;0.00;0.00;;;;;;;21.82;38.09;99826.44;4426032;32;34743;-83
2024/04/04 10:54:26;;;;;;;0.00;0.00;;;;;;;21.75;38.29;99826.16;4445233;32;33388;-83
2024/04/04 10:56:53;;;;;;;1.52;0.40;;;;;;;21.37;37.67;99826.88;4442496;32;33585;-86
2024/04/04 10:59:20;;;;;;;0.35;0.10;;;;;;;21.38;38.60;99823.19;4456880;32;33004;-85
2024/04/04 11:01:51;;;;;;;0.00;0.00;;;;;;;21.43;37.50;99826.34;4454324;32;33938;-86
2024/04/04 11:04:19;;;;;;;0.20;0.20;;;;;;;21.65;37.10;99820.75;4455345;32;34719;-83
2024/04/04 11:06:47;;;;;;;0.00;0.00;;;;;;;21.75;37.70;99810.03;4450279;32;32066;-81
2024/04/04 11:09:24;;;;;;;1.65;0.28;;;;;;;22.19;36.67;99806.00;4453451;32;31624;-80
2024/04/04 11:11:53;;;;;;;0.00;0.00;;;;;;;22.81;35.47;99811.88;4455352;32;34150;-80
2024/04/04 11:14:21;;;;;;;0.00;0.00;;;;;;;22.88;35.91;99813.03;4455550;32;33245;-80
2024/04/04 11:16:50;;;;;;;0.00;0.00;;;;;;;23.40;34.36;99801.78;4468060;31;33549;-80
2024/04/04 11:19:20;;;;;;;0.00;0.00;;;;;;;23.35;34.93;99806.78;4482499;32;33636;-80
2024/04/04 11:21:52;;;;;;;0.03;0.00;;;;;;;23.34;34.32;99807.78;4468722;32;34024;-80
2024/04/04 11:24:21;;;;;;;0.00;0.00;;;;;;;23.22;35.03;99807.12;4454833;32;33114;-80
2024/04/04 11:26:48;;;;;;;0.65;0.20;;;;;;;22.64;34.75;99808.09;4480428;31;32119;-80
2024/04/04 11:29:15;;;;;;;0.08;0.00;;;;;;;22.75;34.34;99816.00;4479270;31;34514;-80
2024/04/04 11:31:41;;;;;;;0.00;0.00;;;;;;;22.75;34.59;99804.41;4483216;31;34011;-80
2024/04/04 11:34:08;;;;;;;0.08;0.08;;;;;;;22.52;35.73;99809.25;4481653;31;34202;-80
2024/04/04 11:36:34;;;;;;;0.00;0.00;;;;;;;22.58;36.62;99811.34;4480172;31;34349;-80